BAW2511 EGLL-FACT
Flight info
| Callsign | BAW2511 |
|---|---|
| Flight time | N/A |
| Altitude | 33000 |
| Route | MODMI M185 MID L612 HAWKE UL612 VEULE DCT DEKOD DCT DISAK DCT DIRMO DCT ETAMO DCT ADEKA DCT MOKDI DCT MEN DCT AMLIR DCT FJR DCT OBLAD DCT KAMER UM998 CSO UA605 AMIRA/N0493F350 UA605 DJA UB730 DIR UA607 FL UA403 ISDET/N0496F370 UA403 BZ DCT KSA UT943 IMVEX/N0492F380 UT943 UNLOK/N0489F390 UT943 VEDRY/N0489F380 UN185 OKLOK Q23 DUMDO DCT ERDAS ERDAS1B |
| Aircraft | A35K/H-SDE2E3GHIJ3J4J5LM1ORWXY/LB1D1 |
Departure
| Time | 2026-05-07 08:33 |
|---|---|
| Airport | London Heathrow Airport (EGLL) |
Arrival
| Time | N/A |
|---|---|
| Airport | Cape Town International Airport (FACT) |
| Time | Latitude | Longitude | Altitude | Speed | Heading |
|---|---|---|---|---|---|
| 2026-05-07 08:15 | 51.46917 | -0.47737 | 92 ft | 0 kts | 90° |
| 2026-05-07 08:25 | 51.46918 | -0.47770 | 93 ft | 4 kts | 99° |
| 2026-05-07 08:25 | 51.46925 | -0.47811 | 92 ft | 4 kts | 116° |
| 2026-05-07 08:26 | 51.46961 | -0.47868 | 94 ft | 4 kts | 170° |
| 2026-05-07 08:26 | 51.46960 | -0.47870 | 93 ft | 4 kts | 179° |
| 2026-05-07 08:26 | 51.46932 | -0.47869 | 91 ft | 4 kts | 179° |
| 2026-05-07 08:27 | 51.46905 | -0.47869 | 92 ft | 4 kts | 180° |
| 2026-05-07 08:27 | 51.46878 | -0.47869 | 93 ft | 4 kts | 180° |
| 2026-05-07 08:27 | 51.46866 | -0.47869 | 92 ft | 0 kts | 180° |
| 2026-05-07 08:29 | 51.46865 | -0.47869 | 92 ft | 0 kts | 180° |
| 2026-05-07 08:29 | 51.46851 | -0.47868 | 92 ft | 4 kts | 180° |
| 2026-05-07 08:29 | 51.46809 | -0.47868 | 92 ft | 8 kts | 179° |
| 2026-05-07 08:29 | 51.46742 | -0.47866 | 93 ft | 11 kts | 179° |
| 2026-05-07 08:30 | 51.46669 | -0.47884 | 94 ft | 10 kts | 221° |
| 2026-05-07 08:30 | 51.46653 | -0.47988 | 93 ft | 10 kts | 268° |
| 2026-05-07 08:30 | 51.46653 | -0.48107 | 94 ft | 11 kts | 270° |
| 2026-05-07 08:30 | 51.46652 | -0.48249 | 92 ft | 14 kts | 269° |
| 2026-05-07 08:31 | 51.46651 | -0.48410 | 95 ft | 15 kts | 269° |
| 2026-05-07 08:31 | 51.46651 | -0.48583 | 92 ft | 16 kts | 269° |
| 2026-05-07 08:31 | 51.46628 | -0.48745 | 97 ft | 14 kts | 219° |
| 2026-05-07 08:31 | 51.46531 | -0.48784 | 93 ft | 15 kts | 171° |
| 2026-05-07 08:32 | 51.46480 | -0.48672 | 95 ft | 11 kts | 96° |
| 2026-05-07 08:32 | 51.46479 | -0.48636 | 94 ft | 1 kts | 91° |
| 2026-05-07 08:32 | 51.46479 | -0.48451 | 92 ft | 48 kts | 89° |
| 2026-05-07 08:32 | 51.46483 | -0.47499 | 94 ft | 121 kts | 90° |
| 2026-05-07 08:33 | 51.46488 | -0.45797 | 95 ft | 183 kts | 89° |
| 2026-05-07 08:33 | 51.46514 | -0.43598 | 636 ft | 199 kts | 88° |
| 2026-05-07 08:33 | 51.46333 | -0.41392 | 1570 ft | 207 kts | 108° |
| 2026-05-07 08:33 | 51.45586 | -0.39265 | 2039 ft | 238 kts | 130° |
| 2026-05-07 08:34 | 51.44198 | -0.37766 | 2757 ft | 244 kts | 161° |
| 2026-05-07 08:34 | 51.42538 | -0.37170 | 3447 ft | 246 kts | 171° |
| 2026-05-07 08:34 | 51.40837 | -0.36657 | 4062 ft | 253 kts | 168° |
| 2026-05-07 08:34 | 51.39045 | -0.36402 | 4483 ft | 264 kts | 189° |
| 2026-05-07 08:35 | 51.37326 | -0.37336 | 5210 ft | 261 kts | 206° |
| 2026-05-07 08:35 | 51.35658 | -0.38484 | 5949 ft | 263 kts | 196° |
| 2026-05-07 08:35 | 51.34206 | -0.38836 | 6507 ft | 267 kts | 180° |
| 2026-05-07 08:35 | 51.32984 | -0.38694 | 6914 ft | 269 kts | 172° |
| 2026-05-07 08:36 | 51.31134 | -0.38117 | 7553 ft | 273 kts | 166° |
| 2026-05-07 08:36 | 51.29294 | -0.37295 | 8221 ft | 276 kts | 162° |
| 2026-05-07 08:36 | 51.27450 | -0.36351 | 8834 ft | 280 kts | 161° |
| 2026-05-07 08:36 | 51.25593 | -0.35378 | 9510 ft | 283 kts | 161° |
| 2026-05-07 08:37 | 51.23706 | -0.34415 | 10152 ft | 286 kts | 162° |
| 2026-05-07 08:37 | 51.21763 | -0.33466 | 10510 ft | 299 kts | 162° |
| 2026-05-07 08:37 | 51.19714 | -0.32499 | 10781 ft | 314 kts | 163° |
| 2026-05-07 08:37 | 51.17568 | -0.31509 | 11060 ft | 329 kts | 163° |
| 2026-05-07 08:38 | 51.15351 | -0.30495 | 11332 ft | 343 kts | 163° |
| 2026-05-07 08:38 | 51.13014 | -0.29431 | 11604 ft | 356 kts | 164° |
| 2026-05-07 08:38 | 51.10596 | -0.28331 | 11875 ft | 368 kts | 163° |
| 2026-05-07 08:38 | 51.08091 | -0.27188 | 12138 ft | 380 kts | 163° |
| 2026-05-07 08:39 | 51.05533 | -0.26018 | 12538 ft | 386 kts | 164° |
| 2026-05-07 08:39 | 51.02937 | -0.24838 | 13030 ft | 389 kts | 164° |
| 2026-05-07 08:39 | 51.00323 | -0.23658 | 13553 ft | 392 kts | 164° |
| 2026-05-07 08:39 | 50.97686 | -0.22469 | 14038 ft | 396 kts | 164° |
| 2026-05-07 08:40 | 50.95062 | -0.21276 | 14491 ft | 398 kts | 164° |
| 2026-05-07 08:40 | 50.92394 | -0.20058 | 14987 ft | 400 kts | 164° |
| 2026-05-07 08:40 | 50.89711 | -0.18839 | 15424 ft | 403 kts | 164° |
| 2026-05-07 08:40 | 50.87004 | -0.17611 | 15901 ft | 406 kts | 164° |
| 2026-05-07 08:41 | 50.84277 | -0.16381 | 16345 ft | 409 kts | 164° |
| 2026-05-07 08:41 | 50.81531 | -0.15141 | 16808 ft | 412 kts | 164° |
| 2026-05-07 08:41 | 50.78769 | -0.13887 | 17296 ft | 414 kts | 164° |
| 2026-05-07 08:41 | 50.75987 | -0.12624 | 17769 ft | 417 kts | 164° |
| 2026-05-07 08:42 | 50.73276 | -0.11404 | 18210 ft | 419 kts | 164° |
| 2026-05-07 08:42 | 50.70464 | -0.10138 | 18640 ft | 422 kts | 164° |
| 2026-05-07 08:42 | 50.67633 | -0.08869 | 19018 ft | 425 kts | 164° |
| 2026-05-07 08:42 | 50.64775 | -0.07589 | 19402 ft | 428 kts | 164° |
| 2026-05-07 08:43 | 50.61904 | -0.06298 | 19775 ft | 431 kts | 165° |
| 2026-05-07 08:43 | 50.59010 | -0.05005 | 20171 ft | 434 kts | 164° |
| 2026-05-07 08:43 | 50.56094 | -0.03700 | 20582 ft | 436 kts | 165° |
| 2026-05-07 08:43 | 50.53299 | -0.02453 | 20974 ft | 439 kts | 165° |
| 2026-05-07 08:44 | 50.50441 | -0.01184 | 21385 ft | 441 kts | 165° |
| 2026-05-07 08:44 | 50.47486 | 0.00170 | 21773 ft | 444 kts | 162° |
| 2026-05-07 08:44 | 50.44666 | 0.02037 | 22179 ft | 448 kts | 152° |
| 2026-05-07 08:44 | 50.41945 | 0.04466 | 22570 ft | 452 kts | 149° |
| 2026-05-07 08:45 | 50.39273 | 0.07097 | 22930 ft | 455 kts | 148° |
| 2026-05-07 08:45 | 50.36620 | 0.09835 | 23347 ft | 458 kts | 147° |
| 2026-05-07 08:45 | 50.33972 | 0.12627 | 23731 ft | 461 kts | 146° |
| 2026-05-07 08:45 | 50.31303 | 0.15445 | 24060 ft | 463 kts | 147° |
| 2026-05-07 08:46 | 50.28619 | 0.18252 | 24401 ft | 466 kts | 147° |
| 2026-05-07 08:46 | 50.25910 | 0.21056 | 24746 ft | 468 kts | 147° |
| 2026-05-07 08:46 | 50.23217 | 0.23822 | 25084 ft | 470 kts | 147° |
| 2026-05-07 08:46 | 50.20480 | 0.26624 | 25427 ft | 472 kts | 147° |
| 2026-05-07 08:47 | 50.17723 | 0.29459 | 25749 ft | 475 kts | 147° |
| 2026-05-07 08:47 | 50.14958 | 0.32307 | 26065 ft | 478 kts | 147° |
| 2026-05-07 08:47 | 50.12175 | 0.35162 | 26411 ft | 480 kts | 147° |
| 2026-05-07 08:47 | 50.09380 | 0.38031 | 26744 ft | 482 kts | 147° |
| 2026-05-07 08:48 | 50.06576 | 0.40915 | 27050 ft | 484 kts | 147° |
| 2026-05-07 08:48 | 50.03755 | 0.43807 | 27376 ft | 487 kts | 148° |
| 2026-05-07 08:48 | 50.00954 | 0.46662 | 27686 ft | 489 kts | 148° |
| 2026-05-07 08:48 | 49.98110 | 0.49562 | 28006 ft | 490 kts | 148° |
| 2026-05-07 08:49 | 49.95248 | 0.52474 | 28281 ft | 493 kts | 148° |
| 2026-05-07 08:49 | 49.92370 | 0.55392 | 28551 ft | 495 kts | 148° |
| 2026-05-07 08:49 | 49.89486 | 0.58322 | 28829 ft | 497 kts | 148° |
| 2026-05-07 08:49 | 49.86586 | 0.61264 | 29182 ft | 497 kts | 148° |
| 2026-05-07 08:50 | 49.83692 | 0.64182 | 29602 ft | 496 kts | 148° |
| 2026-05-07 08:50 | 49.80785 | 0.67051 | 29999 ft | 495 kts | 149° |
| 2026-05-07 08:50 | 49.77877 | 0.69875 | 30345 ft | 494 kts | 149° |
| 2026-05-07 08:50 | 49.74964 | 0.72688 | 30673 ft | 493 kts | 149° |
| 2026-05-07 08:51 | 49.72090 | 0.75467 | 30964 ft | 493 kts | 149° |
| 2026-05-07 08:51 | 49.69186 | 0.78270 | 31259 ft | 492 kts | 149° |
| 2026-05-07 08:51 | 49.66283 | 0.81066 | 31561 ft | 492 kts | 149° |
| 2026-05-07 08:51 | 49.63385 | 0.83866 | 31857 ft | 491 kts | 149° |
| 2026-05-07 08:52 | 49.60491 | 0.86667 | 32141 ft | 491 kts | 149° |
| 2026-05-07 08:52 | 49.57605 | 0.89462 | 32423 ft | 490 kts | 148° |
| 2026-05-07 08:52 | 49.54718 | 0.92253 | 32723 ft | 489 kts | 149° |
| 2026-05-07 08:52 | 49.51876 | 0.94981 | 32998 ft | 488 kts | 149° |
| 2026-05-07 08:53 | 49.46065 | 1.00538 | 33077 ft | 495 kts | 149° |
| 2026-05-07 08:53 | 49.40218 | 1.06126 | 33075 ft | 495 kts | 149° |
| 2026-05-07 08:54 | 49.34379 | 1.11708 | 33075 ft | 494 kts | 149° |
| 2026-05-07 08:54 | 49.28536 | 1.17265 | 33070 ft | 494 kts | 149° |
| 2026-05-07 08:55 | 49.22735 | 1.22773 | 33074 ft | 494 kts | 149° |
| 2026-05-07 08:55 | 49.16891 | 1.28302 | 33074 ft | 494 kts | 149° |
| 2026-05-07 08:56 | 49.11035 | 1.33811 | 33073 ft | 494 kts | 149° |
| 2026-05-07 08:56 | 49.05223 | 1.39269 | 33072 ft | 494 kts | 149° |
| 2026-05-07 08:57 | 48.99381 | 1.44776 | 33072 ft | 494 kts | 149° |
| 2026-05-07 08:57 | 48.93530 | 1.50257 | 33072 ft | 494 kts | 149° |
| 2026-05-07 08:58 | 48.87671 | 1.55716 | 33070 ft | 494 kts | 149° |
| 2026-05-07 08:58 | 48.81815 | 1.61173 | 33063 ft | 494 kts | 149° |
| 2026-05-07 08:59 | 48.75992 | 1.66586 | 33062 ft | 494 kts | 149° |
| 2026-05-07 08:59 | 48.70127 | 1.72007 | 33059 ft | 494 kts | 149° |
| 2026-05-07 09:00 | 48.64249 | 1.77399 | 33056 ft | 494 kts | 149° |
| 2026-05-07 09:00 | 48.58414 | 1.82766 | 33061 ft | 494 kts | 149° |
| 2026-05-07 09:01 | 48.52538 | 1.88162 | 33045 ft | 494 kts | 149° |
| 2026-05-07 09:01 | 48.46658 | 1.93549 | 33042 ft | 494 kts | 149° |
| 2026-05-07 09:02 | 48.40780 | 1.98909 | 33053 ft | 494 kts | 149° |
| 2026-05-07 09:02 | 48.34933 | 2.04227 | 33111 ft | 493 kts | 149° |
| 2026-05-07 09:03 | 48.31994 | 2.06868 | 33473 ft | 490 kts | 152° |
| 2026-05-07 09:03 | 48.28938 | 2.09066 | 33798 ft | 486 kts | 160° |
| 2026-05-07 09:03 | 48.25723 | 2.10573 | 34041 ft | 483 kts | 168° |
| 2026-05-07 09:03 | 48.22429 | 2.11509 | 34266 ft | 481 kts | 171° |
| 2026-05-07 09:04 | 48.19126 | 2.12278 | 34453 ft | 480 kts | 173° |
| 2026-05-07 09:04 | 48.15812 | 2.12963 | 34634 ft | 480 kts | 173° |
| 2026-05-07 09:04 | 48.12494 | 2.13433 | 34750 ft | 480 kts | 178° |
| 2026-05-07 09:04 | 48.09200 | 2.13673 | 34894 ft | 480 kts | 178° |
| 2026-05-07 09:05 | 48.05866 | 2.13873 | 35019 ft | 480 kts | 179° |
| 2026-05-07 09:05 | 48.02514 | 2.14051 | 35073 ft | 483 kts | 179° |
| 2026-05-07 09:05 | 47.95756 | 2.14409 | 35074 ft | 488 kts | 179° |
| 2026-05-07 09:06 | 47.88982 | 2.14793 | 35072 ft | 487 kts | 179° |
| 2026-05-07 09:06 | 47.82220 | 2.15188 | 35073 ft | 487 kts | 179° |
| 2026-05-07 09:07 | 47.75495 | 2.15578 | 35039 ft | 486 kts | 179° |
| 2026-05-07 09:07 | 47.68735 | 2.15984 | 35037 ft | 486 kts | 179° |
| 2026-05-07 09:08 | 47.61974 | 2.16370 | 35042 ft | 486 kts | 179° |
| 2026-05-07 09:08 | 47.55213 | 2.16745 | 35041 ft | 486 kts | 179° |
| 2026-05-07 09:09 | 47.48491 | 2.17140 | 35042 ft | 486 kts | 179° |
| 2026-05-07 09:09 | 47.41734 | 2.17531 | 35042 ft | 486 kts | 179° |
| 2026-05-07 09:10 | 47.34968 | 2.17937 | 35039 ft | 486 kts | 179° |
| 2026-05-07 09:10 | 47.28214 | 2.18318 | 35045 ft | 485 kts | 179° |
| 2026-05-07 09:11 | 47.21509 | 2.18691 | 35046 ft | 485 kts | 179° |
| 2026-05-07 09:11 | 47.14766 | 2.19079 | 35042 ft | 485 kts | 179° |
| 2026-05-07 09:12 | 47.08065 | 2.20257 | 35047 ft | 487 kts | 166° |
| 2026-05-07 09:12 | 47.01656 | 2.23552 | 35045 ft | 490 kts | 160° |
| 2026-05-07 09:13 | 46.95326 | 2.27292 | 35045 ft | 491 kts | 159° |
| 2026-05-07 09:13 | 46.89043 | 2.31020 | 35047 ft | 491 kts | 160° |
| 2026-05-07 09:14 | 46.82847 | 2.35205 | 35049 ft | 492 kts | 150° |
| 2026-05-07 09:14 | 46.77043 | 2.40539 | 35045 ft | 494 kts | 148° |
| 2026-05-07 09:15 | 46.71299 | 2.46053 | 35047 ft | 495 kts | 148° |
| 2026-05-07 09:15 | 46.65584 | 2.51528 | 35048 ft | 495 kts | 148° |
| 2026-05-07 09:16 | 46.59822 | 2.57003 | 35048 ft | 495 kts | 148° |
| 2026-05-07 09:16 | 46.54051 | 2.62437 | 35049 ft | 495 kts | 148° |
| 2026-05-07 09:17 | 46.48278 | 2.67879 | 35049 ft | 495 kts | 148° |
| 2026-05-07 09:17 | 46.42508 | 2.73313 | 35047 ft | 495 kts | 149° |
| 2026-05-07 09:18 | 46.36763 | 2.78683 | 35045 ft | 495 kts | 149° |
| 2026-05-07 09:18 | 46.30972 | 2.84098 | 35045 ft | 496 kts | 149° |
| 2026-05-07 09:19 | 46.25179 | 2.89532 | 35044 ft | 496 kts | 149° |
| 2026-05-07 09:19 | 46.19420 | 2.94908 | 35046 ft | 496 kts | 149° |
| 2026-05-07 09:20 | 46.13617 | 3.00297 | 35045 ft | 496 kts | 149° |
| 2026-05-07 09:20 | 46.07806 | 3.05672 | 35045 ft | 497 kts | 149° |
| 2026-05-07 09:21 | 46.01979 | 3.11026 | 35045 ft | 497 kts | 150° |
| 2026-05-07 09:21 | 45.96007 | 3.15810 | 35045 ft | 492 kts | 161° |
| 2026-05-07 09:22 | 45.89427 | 3.18035 | 35047 ft | 484 kts | 180° |
| 2026-05-07 09:22 | 45.82719 | 3.18177 | 35048 ft | 482 kts | 184° |
| 2026-05-07 09:23 | 45.76021 | 3.18020 | 35047 ft | 481 kts | 184° |
| 2026-05-07 09:23 | 45.69327 | 3.17870 | 35038 ft | 481 kts | 184° |
| 2026-05-07 09:24 | 45.62689 | 3.17765 | 35038 ft | 480 kts | 184° |
| 2026-05-07 09:24 | 45.56019 | 3.17659 | 35038 ft | 480 kts | 184° |
| 2026-05-07 09:25 | 45.49348 | 3.17565 | 35030 ft | 480 kts | 184° |
| 2026-05-07 09:25 | 45.42675 | 3.17486 | 35045 ft | 479 kts | 183° |
| 2026-05-07 09:26 | 45.36211 | 3.17423 | 35034 ft | 479 kts | 184° |
| 2026-05-07 09:26 | 45.29537 | 3.17334 | 35033 ft | 479 kts | 184° |
| 2026-05-07 09:27 | 45.22881 | 3.17234 | 35032 ft | 478 kts | 184° |
| 2026-05-07 09:28 | 45.12893 | 3.17098 | 35009 ft | 478 kts | 184° |
| 2026-05-07 09:28 | 45.06284 | 3.17020 | 35021 ft | 478 kts | 184° |
| 2026-05-07 09:29 | 44.99639 | 3.16940 | 35024 ft | 478 kts | 184° |
| 2026-05-07 09:29 | 44.92989 | 3.16853 | 35021 ft | 478 kts | 184° |
| 2026-05-07 09:30 | 44.86345 | 3.16762 | 35023 ft | 478 kts | 184° |
| 2026-05-07 09:30 | 44.79693 | 3.16675 | 35022 ft | 478 kts | 184° |
| 2026-05-07 09:31 | 44.73093 | 3.16582 | 35020 ft | 478 kts | 184° |
| 2026-05-07 09:31 | 44.66447 | 3.16508 | 35015 ft | 478 kts | 184° |
| 2026-05-07 09:32 | 44.59797 | 3.16428 | 35015 ft | 478 kts | 184° |
| 2026-05-07 09:32 | 44.53148 | 3.16481 | 35015 ft | 478 kts | 183° |
| 2026-05-07 09:33 | 44.46501 | 3.17248 | 35014 ft | 484 kts | 171° |
| 2026-05-07 09:33 | 44.40212 | 3.20648 | 35014 ft | 496 kts | 152° |
| 2026-05-07 09:34 | 44.34389 | 3.25929 | 35010 ft | 501 kts | 149° |
| 2026-05-07 09:34 | 44.28655 | 3.31478 | 35010 ft | 502 kts | 149° |
| 2026-05-07 09:35 | 44.22914 | 3.37013 | 35006 ft | 501 kts | 150° |
| 2026-05-07 09:35 | 44.17185 | 3.42428 | 34996 ft | 501 kts | 150° |
| 2026-05-07 09:36 | 44.11414 | 3.47858 | 35012 ft | 500 kts | 150° |
| 2026-05-07 09:36 | 44.05651 | 3.53283 | 34995 ft | 500 kts | 150° |
| 2026-05-07 09:37 | 43.99891 | 3.58684 | 35009 ft | 499 kts | 150° |
| 2026-05-07 09:37 | 43.94163 | 3.64018 | 35008 ft | 499 kts | 150° |
| 2026-05-07 09:38 | 43.88406 | 3.69378 | 35009 ft | 497 kts | 150° |
| 2026-05-07 09:38 | 43.82658 | 3.74724 | 35012 ft | 498 kts | 150° |
| 2026-05-07 09:39 | 43.76908 | 3.80057 | 35017 ft | 498 kts | 150° |
| 2026-05-07 09:39 | 43.71194 | 3.85368 | 35014 ft | 499 kts | 150° |
| 2026-05-07 09:40 | 43.65425 | 3.90697 | 35015 ft | 499 kts | 151° |
| 2026-05-07 09:40 | 43.59642 | 3.95996 | 35013 ft | 498 kts | 152° |
| 2026-05-07 09:41 | 43.53570 | 4.00258 | 35015 ft | 491 kts | 160° |
| 2026-05-07 09:41 | 43.47347 | 4.04048 | 35021 ft | 489 kts | 161° |
| 2026-05-07 09:42 | 43.41119 | 4.07762 | 35022 ft | 488 kts | 161° |
| 2026-05-07 09:42 | 43.34885 | 4.11501 | 35008 ft | 488 kts | 161° |
| 2026-05-07 09:43 | 43.28849 | 4.15124 | 35014 ft | 488 kts | 161° |
| 2026-05-07 09:43 | 43.22640 | 4.18835 | 35015 ft | 487 kts | 161° |